sensor_id;sensor_type;location;lat;lon;timestamp;pressure;altitude;pressure_sealevel;temperature;humidity
7264;BME280;3673;52.480;13.348;2022-12-18T00:00:46;102861.13;;;0.53;58.85
7264;BME280;3673;52.480;13.348;2022-12-18T00:03:14;102868.75;;;0.40;58.91
7264;BME280;3673;52.480;13.348;2022-12-18T00:05:47;102862.25;;;0.57;58.38
7264;BME280;3673;52.480;13.348;2022-12-18T00:08:14;102866.88;;;0.04;58.77
7264;BME280;3673;52.480;13.348;2022-12-18T00:10:42;102873.50;;;0.12;58.58
7264;BME280;3673;52.480;13.348;2022-12-18T00:13:09;102871.53;;;0.20;59.01
7264;BME280;3673;52.480;13.348;2022-12-18T00:15:37;102879.25;;;0.31;58.49
7264;BME280;3673;52.480;13.348;2022-12-18T00:18:04;102875.19;;;0.12;58.27
7264;BME280;3673;52.480;13.348;2022-12-18T00:20:36;102871.28;;;0.28;58.38
7264;BME280;3673;52.480;13.348;2022-12-18T00:23:02;102871.47;;;-0.04;58.47
7264;BME280;3673;52.480;13.348;2022-12-18T00:25:29;102872.00;;;-0.41;59.57
7264;BME280;3673;52.480;13.348;2022-12-18T00:27:56;102860.66;;;-0.55;60.34
7264;BME280;3673;52.480;13.348;2022-12-18T00:30:23;102856.47;;;-0.64;60.73
7264;BME280;3673;52.480;13.348;2022-12-18T00:32:49;102876.28;;;-0.73;60.91
7264;BME280;3673;52.480;13.348;2022-12-18T00:35:16;102877.28;;;-0.93;61.69
7264;BME280;3673;52.480;13.348;2022-12-18T00:37:44;102868.09;;;-0.36;60.45
7264;BME280;3673;52.480;13.348;2022-12-18T00:40:12;102856.34;;;0.01;59.63
7264;BME280;3673;52.480;13.348;2022-12-18T00:42:38;102863.75;;;-0.04;59.22
7264;BME280;3673;52.480;13.348;2022-12-18T00:45:23;102865.78;;;-0.55;60.41
7264;BME280;3673;52.480;13.348;2022-12-18T00:47:50;102861.22;;;-0.25;60.17
7264;BME280;3673;52.480;13.348;2022-12-18T00:50:17;102869.75;;;-0.03;59.03
7264;BME280;3673;52.480;13.348;2022-12-18T00:52:45;102871.84;;;-0.54;59.73
7264;BME280;3673;52.480;13.348;2022-12-18T00:55:13;102858.13;;;-0.10;59.48
7264;BME280;3673;52.480;13.348;2022-12-18T00:57:40;102858.75;;;0.10;58.20
7264;BME280;3673;52.480;13.348;2022-12-18T01:00:10;102853.69;;;0.11;58.70
7264;BME280;3673;52.480;13.348;2022-12-18T01:02:37;102865.59;;;-0.46;59.56
7264;BME280;3673;52.480;13.348;2022-12-18T01:05:05;102862.41;;;-0.32;59.54
7264;BME280;3673;52.480;13.348;2022-12-18T01:07:32;102856.25;;;-0.67;60.35
7264;BME280;3673;52.480;13.348;2022-12-18T01:10:00;102857.81;;;-0.36;60.22
7264;BME280;3673;52.480;13.348;2022-12-18T01:12:26;102863.91;;;-0.24;58.89
7264;BME280;3673;52.480;13.348;2022-12-18T01:14:53;102871.81;;;-0.32;59.25
7264;BME280;3673;52.480;13.348;2022-12-18T01:17:20;102879.00;;;-0.72;59.76
7264;BME280;3673;52.480;13.348;2022-12-18T01:19:47;102884.00;;;-0.95;60.83
7264;BME280;3673;52.480;13.348;2022-12-18T01:22:14;102886.38;;;-0.86;61.20
7264;BME280;3673;52.480;13.348;2022-12-18T01:24:40;102879.72;;;-0.84;61.13
7264;BME280;3673;52.480;13.348;2022-12-18T01:27:09;102887.72;;;-0.48;60.12
7264;BME280;3673;52.480;13.348;2022-12-18T01:29:35;102889.94;;;-0.31;59.22
7264;BME280;3673;52.480;13.348;2022-12-18T01:32:02;102887.63;;;-0.16;59.06
7264;BME280;3673;52.480;13.348;2022-12-18T01:34:29;102892.03;;;-0.37;59.30
7264;BME280;3673;52.480;13.348;2022-12-18T01:36:56;102892.63;;;-0.51;59.48
7264;BME280;3673;52.480;13.348;2022-12-18T01:39:22;102890.63;;;-0.22;59.25
7264;BME280;3673;52.480;13.348;2022-12-18T01:41:49;102900.22;;;0.03;58.92
7264;BME280;3673;52.480;13.348;2022-12-18T01:45:00;102896.75;;;0.14;58.63
7264;BME280;3673;52.480;13.348;2022-12-18T01:47:32;102895.81;;;0.23;57.81
7264;BME280;3673;52.480;13.348;2022-12-18T01:50:04;102897.81;;;0.27;57.87
7264;BME280;3673;52.480;13.348;2022-12-18T01:52:33;102898.56;;;0.15;57.56
7264;BME280;3673;52.480;13.348;2022-12-18T01:55:03;102901.69;;;-0.23;58.12
7264;BME280;3673;52.480;13.348;2022-12-18T01:57:31;102896.28;;;-0.04;57.74
7264;BME280;3673;52.480;13.348;2022-12-18T02:00:05;102896.38;;;-0.03;57.71
7264;BME280;3673;52.480;13.348;2022-12-18T02:02:35;102897.66;;;0.03;57.59
7264;BME280;3673;52.480;13.348;2022-12-18T02:05:03;102898.63;;;-0.07;57.88
7264;BME280;3673;52.480;13.348;2022-12-18T02:07:40;102899.72;;;-0.15;58.42
7264;BME280;3673;52.480;13.348;2022-12-18T02:10:15;102895.75;;;0.12;57.71
7264;BME280;3673;52.480;13.348;2022-12-18T02:12:49;102895.00;;;0.24;57.32
7264;BME280;3673;52.480;13.348;2022-12-18T02:15:26;102897.66;;;0.03;57.76
7264;BME280;3673;52.480;13.348;2022-12-18T02:17:58;102897.38;;;-0.12;58.33
7264;BME280;3673;52.480;13.348;2022-12-18T02:20:33;102900.84;;;-0.12;58.54
7264;BME280;3673;52.480;13.348;2022-12-18T02:23:11;102910.22;;;-0.12;58.54
7264;BME280;3673;52.480;13.348;2022-12-18T02:26:07;102914.56;;;0.11;57.88
7264;BME280;3673;52.480;13.348;2022-12-18T02:28:43;102899.28;;;-0.10;58.24
7264;BME280;3673;52.480;13.348;2022-12-18T02:31:15;102906.06;;;0.12;57.58
7264;BME280;3673;52.480;13.348;2022-12-18T02:33:45;102904.34;;;0.00;57.36
7264;BME280;3673;52.480;13.348;2022-12-18T02:36:13;102921.88;;;-0.17;58.06
7264;BME280;3673;52.480;13.348;2022-12-18T02:38:42;102921.97;;;-0.16;57.58
7264;BME280;3673;52.480;13.348;2022-12-18T02:41:13;102932.41;;;-0.03;57.67
7264;BME280;3673;52.480;13.348;2022-12-18T02:43:47;102937.56;;;-0.03;57.43
7264;BME280;3673;52.480;13.348;2022-12-18T02:46:32;102925.94;;;-0.31;58.07
7264;BME280;3673;52.480;13.348;2022-12-18T02:49:09;102924.47;;;-0.06;57.84
7264;BME280;3673;52.480;13.348;2022-12-18T02:51:50;102920.44;;;-0.02;57.62
7264;BME280;3673;52.480;13.348;2022-12-18T02:54:35;102929.81;;;-0.36;57.33
7264;BME280;3673;52.480;13.348;2022-12-18T02:57:16;102924.13;;;-0.10;57.25
7264;BME280;3673;52.480;13.348;2022-12-18T02:59:55;102928.41;;;0.01;57.61
7264;BME280;3673;52.480;13.348;2022-12-18T03:02:31;102925.38;;;-0.05;57.38
7264;BME280;3673;52.480;13.348;2022-12-18T03:05:04;102937.28;;;-0.39;57.49
7264;BME280;3673;52.480;13.348;2022-12-18T03:07:39;102928.09;;;-0.47;57.81
7264;BME280;3673;52.480;13.348;2022-12-18T03:10:14;102925.94;;;-0.31;57.86
7264;BME280;3673;52.480;13.348;2022-12-18T03:12:47;102924.13;;;-0.32;57.77
7264;BME280;3673;52.480;13.348;2022-12-18T03:15:22;102937.03;;;-0.42;57.60
7264;BME280;3673;52.480;13.348;2022-12-18T03:17:54;102942.47;;;-0.49;58.25
7264;BME280;3673;52.480;13.348;2022-12-18T03:20:23;102938.63;;;-0.44;58.09
7264;BME280;3673;52.480;13.348;2022-12-18T03:22:57;102930.84;;;-0.34;57.14
7264;BME280;3673;52.480;13.348;2022-12-18T03:25:27;102936.28;;;-0.41;57.74
7264;BME280;3673;52.480;13.348;2022-12-18T03:27:58;102933.38;;;-0.12;57.36
7264;BME280;3673;52.480;13.348;2022-12-18T03:30:26;102946.34;;;-0.76;58.55
7264;BME280;3673;52.480;13.348;2022-12-18T03:33:01;102941.13;;;-1.29;59.41
7264;BME280;3673;52.480;13.348;2022-12-18T03:35:37;102934.22;;;-1.30;59.61
7264;BME280;3673;52.480;13.348;2022-12-18T03:38:05;102937.06;;;-1.06;59.67
7264;BME280;3673;52.480;13.348;2022-12-18T03:40:43;102942.09;;;-1.07;59.38
7264;BME280;3673;52.480;13.348;2022-12-18T03:43:19;102938.19;;;-0.60;58.63
7264;BME280;3673;52.480;13.348;2022-12-18T03:45:52;102928.09;;;-0.79;58.57
7264;BME280;3673;52.480;13.348;2022-12-18T03:48:28;102929.88;;;-1.10;59.35
7264;BME280;3673;52.480;13.348;2022-12-18T03:50:59;102934.91;;;-1.11;59.01
7264;BME280;3673;52.480;13.348;2022-12-18T03:53:34;102943.31;;;-1.34;59.67
7264;BME280;3673;52.480;13.348;2022-12-18T03:56:04;102950.34;;;-1.21;60.04
7264;BME280;3673;52.480;13.348;2022-12-18T03:58:35;102947.50;;;-1.14;59.38
7264;BME280;3673;52.480;13.348;2022-12-18T04:01:08;102940.41;;;-1.07;59.46
7264;BME280;3673;52.480;13.348;2022-12-18T04:03:38;102940.03;;;-1.01;59.57
7264;BME280;3673;52.480;13.348;2022-12-18T04:06:06;102941.03;;;-1.41;60.33
7264;BME280;3673;52.480;13.348;2022-12-18T04:08:34;102940.88;;;-1.32;60.03
7264;BME280;3673;52.480;13.348;2022-12-18T04:11:01;102956.63;;;-1.08;59.51
7264;BME280;3673;52.480;13.348;2022-12-18T04:13:33;102953.13;;;-1.08;59.89
7264;BME280;3673;52.480;13.348;2022-12-18T04:16:00;102947.47;;;-1.04;59.17
7264;BME280;3673;52.480;13.348;2022-12-18T04:18:27;102958.75;;;-0.60;58.85
7264;BME280;3673;52.480;13.348;2022-12-18T04:20:54;102951.34;;;-0.67;58.32
7264;BME280;3673;52.480;13.348;2022-12-18T04:23:21;102962.22;;;-0.91;58.62
7264;BME280;3673;52.480;13.348;2022-12-18T04:25:48;102970.53;;;-0.84;59.06
7264;BME280;3673;52.480;13.348;2022-12-18T04:28:15;102961.09;;;-0.73;58.35
7264;BME280;3673;52.480;13.348;2022-12-18T04:30:43;102954.28;;;-0.41;57.97
7264;BME280;3673;52.480;13.348;2022-12-18T04:33:11;102963.94;;;-0.48;57.50
7264;BME280;3673;52.480;13.348;2022-12-18T04:35:38;102962.66;;;-0.22;57.15
7264;BME280;3673;52.480;13.348;2022-12-18T04:38:06;102970.94;;;-0.36;57.07
7264;BME280;3673;52.480;13.348;2022-12-18T04:40:35;102962.31;;;-0.90;57.61
7264;BME280;3673;52.480;13.348;2022-12-18T04:43:02;102970.59;;;-1.04;58.52
7264;BME280;3673;52.480;13.348;2022-12-18T04:45:30;102979.50;;;-1.31;59.40
7264;BME280;3673;52.480;13.348;2022-12-18T04:47:58;102960.97;;;-1.17;59.00
7264;BME280;3673;52.480;13.348;2022-12-18T04:50:26;102966.41;;;-0.82;58.49
7264;BME280;3673;52.480;13.348;2022-12-18T04:52:53;102968.66;;;-0.43;58.02
7264;BME280;3673;52.480;13.348;2022-12-18T04:55:20;102963.72;;;-0.52;58.06
7264;BME280;3673;52.480;13.348;2022-12-18T04:57:47;102965.13;;;-0.33;56.88
7264;BME280;3673;52.480;13.348;2022-12-18T05:00:15;102968.03;;;-0.40;56.90
7264;BME280;3673;52.480;13.348;2022-12-18T05:02:42;102969.28;;;-0.57;57.52
7264;BME280;3673;52.480;13.348;2022-12-18T05:05:10;102973.03;;;-0.42;57.45
7264;BME280;3673;52.480;13.348;2022-12-18T05:07:37;102970.97;;;-1.10;58.62
7264;BME280;3673;52.480;13.348;2022-12-18T05:10:07;102980.13;;;-1.23;59.22
7264;BME280;3673;52.480;13.348;2022-12-18T05:12:34;102974.41;;;-1.41;60.22
7264;BME280;3673;52.480;13.348;2022-12-18T05:15:22;102984.78;;;-1.39;59.82
7264;BME280;3673;52.480;13.348;2022-12-18T05:17:49;102985.56;;;-1.61;60.27
7264;BME280;3673;52.480;13.348;2022-12-18T05:20:17;102984.16;;;-1.37;60.68
7264;BME280;3673;52.480;13.348;2022-12-18T05:22:45;102984.78;;;-1.49;59.98
7264;BME280;3673;52.480;13.348;2022-12-18T05:25:12;102993.78;;;-1.65;60.60
7264;BME280;3673;52.480;13.348;2022-12-18T05:27:38;103000.81;;;-1.52;60.48
7264;BME280;3673;52.480;13.348;2022-12-18T05:30:07;103007.88;;;-1.29;60.05
7264;BME280;3673;52.480;13.348;2022-12-18T05:32:34;103011.06;;;-1.22;60.24
7264;BME280;3673;52.480;13.348;2022-12-18T05:35:01;103005.75;;;-1.03;60.08
7264;BME280;3673;52.480;13.348;2022-12-18T05:37:30;103008.88;;;-1.07;59.83
7264;BME280;3673;52.480;13.348;2022-12-18T05:39:56;103016.75;;;-0.74;58.92
7264;BME280;3673;52.480;13.348;2022-12-18T05:42:23;103002.44;;;-1.12;59.40
7264;BME280;3673;52.480;13.348;2022-12-18T05:44:50;103012.47;;;-1.15;59.59
7264;BME280;3673;52.480;13.348;2022-12-18T05:47:17;103002.22;;;-1.45;60.30
7264;BME280;3673;52.480;13.348;2022-12-18T05:49:44;102999.91;;;-1.32;60.40
7264;BME280;3673;52.480;13.348;2022-12-18T05:52:11;103009.03;;;-1.26;60.67
7264;BME280;3673;52.480;13.348;2022-12-18T05:54:39;103015.44;;;-0.69;59.26
7264;BME280;3673;52.480;13.348;2022-12-18T05:57:06;103016.72;;;-0.64;58.27
7264;BME280;3673;52.480;13.348;2022-12-18T05:59:33;103017.34;;;-0.66;58.23
7264;BME280;3673;52.480;13.348;2022-12-18T06:02:00;103019.47;;;-0.82;59.02
7264;BME280;3673;52.480;13.348;2022-12-18T06:04:31;103018.47;;;-0.84;58.67
7264;BME280;3673;52.480;13.348;2022-12-18T06:06:58;103026.84;;;-0.97;59.05
7264;BME280;3673;52.480;13.348;2022-12-18T06:09:25;103038.41;;;-1.02;59.16
7264;BME280;3673;52.480;13.348;2022-12-18T06:11:53;103032.09;;;-1.06;59.27
7264;BME280;3673;52.480;13.348;2022-12-18T06:14:20;103033.19;;;-0.72;58.51
7264;BME280;3673;52.480;13.348;2022-12-18T06:16:47;103040.03;;;-0.82;58.70
7264;BME280;3673;52.480;13.348;2022-12-18T06:19:16;103037.69;;;-0.79;58.68
7264;BME280;3673;52.480;13.348;2022-12-18T06:21:43;103043.09;;;-0.86;58.51
7264;BME280;3673;52.480;13.348;2022-12-18T06:24:10;103051.56;;;-0.67;58.23
7264;BME280;3673;52.480;13.348;2022-12-18T06:26:38;103040.94;;;-0.82;58.79
7264;BME280;3673;52.480;13.348;2022-12-18T06:29:06;103037.47;;;-0.40;58.01
7264;BME280;3673;52.480;13.348;2022-12-18T06:31:33;103044.91;;;-0.85;58.39
7264;BME280;3673;52.480;13.348;2022-12-18T06:34:03;103042.16;;;-1.29;59.07
7264;BME280;3673;52.480;13.348;2022-12-18T06:36:30;103041.50;;;-1.16;59.71
7264;BME280;3673;52.480;13.348;2022-12-18T06:38:58;103058.66;;;-0.85;59.08
7264;BME280;3673;52.480;13.348;2022-12-18T06:41:25;103064.84;;;-1.03;59.35
7264;BME280;3673;52.480;13.348;2022-12-18T06:43:52;103065.19;;;-0.68;59.02
7264;BME280;3673;52.480;13.348;2022-12-18T06:46:20;103063.53;;;-0.78;58.54
7264;BME280;3673;52.480;13.348;2022-12-18T06:48:48;103060.06;;;-0.78;58.36
7264;BME280;3673;52.480;13.348;2022-12-18T06:51:20;103069.97;;;-0.41;58.33
7264;BME280;3673;52.480;13.348;2022-12-18T06:53:47;103081.28;;;-0.39;57.90
7264;BME280;3673;52.480;13.348;2022-12-18T06:56:14;103084.78;;;-0.17;57.57
7264;BME280;3673;52.480;13.348;2022-12-18T06:58:41;103097.25;;;-0.11;56.92
7264;BME280;3673;52.480;13.348;2022-12-18T07:01:10;103097.78;;;-0.15;57.38
7264;BME280;3673;52.480;13.348;2022-12-18T07:03:39;103096.59;;;-0.09;57.19
7264;BME280;3673;52.480;13.348;2022-12-18T07:06:14;103092.44;;;-0.07;56.53
7264;BME280;3673;52.480;13.348;2022-12-18T07:08:41;103078.16;;;-0.25;57.03
7264;BME280;3673;52.480;13.348;2022-12-18T07:11:08;103071.09;;;-0.69;58.41
7264;BME280;3673;52.480;13.348;2022-12-18T07:13:35;103077.97;;;-0.48;57.86
7264;BME280;3673;52.480;13.348;2022-12-18T07:16:08;103072.06;;;-0.47;57.60
7264;BME280;3673;52.480;13.348;2022-12-18T07:18:35;103086.22;;;-0.52;57.77
7264;BME280;3673;52.480;13.348;2022-12-18T07:21:05;103089.94;;;-0.59;58.25
7264;BME280;3673;52.480;13.348;2022-12-18T07:23:33;103084.72;;;-0.70;58.45
7264;BME280;3673;52.480;13.348;2022-12-18T07:26:02;103088.75;;;-0.42;58.18
7264;BME280;3673;52.480;13.348;2022-12-18T07:28:31;103088.19;;;-0.28;57.57
7264;BME280;3673;52.480;13.348;2022-12-18T07:30:58;103084.19;;;-0.76;58.67
7264;BME280;3673;52.480;13.348;2022-12-18T07:33:28;103086.19;;;-1.04;59.97
7264;BME280;3673;52.480;13.348;2022-12-18T07:35:55;103090.16;;;-0.97;59.49
7264;BME280;3673;52.480;13.348;2022-12-18T07:38:23;103094.75;;;-0.83;59.76
7264;BME280;3673;52.480;13.348;2022-12-18T07:40:50;103086.53;;;-0.27;58.77
7264;BME280;3673;52.480;13.348;2022-12-18T07:43:17;103085.19;;;-0.54;57.94
7264;BME280;3673;52.480;13.348;2022-12-18T07:45:44;103090.56;;;-0.41;58.34
7264;BME280;3673;52.480;13.348;2022-12-18T07:48:11;103081.41;;;-1.10;60.13
7264;BME280;3673;52.480;13.348;2022-12-18T07:50:38;103079.38;;;-1.03;60.21
7264;BME280;3673;52.480;13.348;2022-12-18T07:53:05;103077.16;;;-0.89;59.41
7264;BME280;3673;52.480;13.348;2022-12-18T07:55:33;103076.53;;;-1.17;60.83
7264;BME280;3673;52.480;13.348;2022-12-18T07:58:01;103083.84;;;-0.39;59.83
7264;BME280;3673;52.480;13.348;2022-12-18T08:00:28;103078.91;;;-0.26;58.79
7264;BME280;3673;52.480;13.348;2022-12-18T08:02:55;103079.63;;;-0.48;59.79
7264;BME280;3673;52.480;13.348;2022-12-18T08:05:23;103080.53;;;-0.16;58.92
7264;BME280;3673;52.480;13.348;2022-12-18T08:07:50;103096.84;;;-0.06;58.08
7264;BME280;3673;52.480;13.348;2022-12-18T08:10:17;103096.22;;;-0.45;58.93
7264;BME280;3673;52.480;13.348;2022-12-18T08:12:45;103095.06;;;-0.17;58.43
7264;BME280;3673;52.480;13.348;2022-12-18T08:15:12;103086.44;;;0.15;58.40
7264;BME280;3673;52.480;13.348;2022-12-18T08:17:38;103088.59;;;-0.02;58.20
7264;BME280;3673;52.480;13.348;2022-12-18T08:20:07;103089.47;;;-0.65;59.79
7264;BME280;3673;52.480;13.348;2022-12-18T08:22:34;103102.56;;;-0.30;58.76
7264;BME280;3673;52.480;13.348;2022-12-18T08:25:02;103105.78;;;-0.22;59.25
7264;BME280;3673;52.480;13.348;2022-12-18T08:27:29;103098.19;;;-0.21;59.40
7264;BME280;3673;52.480;13.348;2022-12-18T08:29:58;103102.06;;;-0.26;59.38
7264;BME280;3673;52.480;13.348;2022-12-18T08:32:26;103104.38;;;-0.29;58.62
7264;BME280;3673;52.480;13.348;2022-12-18T08:34:54;103101.66;;;-0.20;59.17
7264;BME280;3673;52.480;13.348;2022-12-18T08:37:20;103109.16;;;-0.33;59.02
7264;BME280;3673;52.480;13.348;2022-12-18T08:39:47;103107.59;;;0.00;58.09
7264;BME280;3673;52.480;13.348;2022-12-18T08:42:14;103118.03;;;0.24;58.44
7264;BME280;3673;52.480;13.348;2022-12-18T08:45:00;103123.78;;;0.31;57.70
7264;BME280;3673;52.480;13.348;2022-12-18T08:47:26;103125.28;;;-0.04;57.99
7264;BME280;3673;52.480;13.348;2022-12-18T08:49:53;103126.56;;;0.23;58.33
7264;BME280;3673;52.480;13.348;2022-12-18T08:52:20;103124.56;;;0.09;57.31
7264;BME280;3673;52.480;13.348;2022-12-18T08:54:47;103133.66;;;-0.17;58.45
7264;BME280;3673;52.480;13.348;2022-12-18T08:57:14;103139.53;;;-0.49;59.67
7264;BME280;3673;52.480;13.348;2022-12-18T08:59:40;103144.06;;;-0.57;59.92
7264;BME280;3673;52.480;13.348;2022-12-18T09:02:10;103143.03;;;-0.59;59.24
7264;BME280;3673;52.480;13.348;2022-12-18T09:04:36;103130.59;;;-0.75;60.36
7264;BME280;3673;52.480;13.348;2022-12-18T09:07:05;103138.63;;;-0.50;59.58
7264;BME280;3673;52.480;13.348;2022-12-18T09:09:32;103143.78;;;-0.50;59.98
7264;BME280;3673;52.480;13.348;2022-12-18T09:11:58;103146.69;;;-0.25;59.07
7264;BME280;3673;52.480;13.348;2022-12-18T09:14:25;103150.56;;;0.02;58.43
7264;BME280;3673;52.480;13.348;2022-12-18T09:16:52;103148.03;;;-0.09;58.18
7264;BME280;3673;52.480;13.348;2022-12-18T09:19:20;103153.31;;;-0.07;58.62
7264;BME280;3673;52.480;13.348;2022-12-18T09:21:47;103155.06;;;0.04;58.88
7264;BME280;3673;52.480;13.348;2022-12-18T09:24:14;103152.31;;;-0.19;58.53
7264;BME280;3673;52.480;13.348;2022-12-18T09:26:42;103148.28;;;-0.06;58.29
7264;BME280;3673;52.480;13.348;2022-12-18T09:29:09;103150.44;;;-0.32;58.74
7264;BME280;3673;52.480;13.348;2022-12-18T09:31:36;103157.78;;;-0.46;60.02
7264;BME280;3673;52.480;13.348;2022-12-18T09:34:06;103147.47;;;0.06;58.73
7264;BME280;3673;52.480;13.348;2022-12-18T09:36:34;103150.53;;;0.12;58.60
7264;BME280;3673;52.480;13.348;2022-12-18T09:39:01;103139.47;;;-0.29;59.03
7264;BME280;3673;52.480;13.348;2022-12-18T09:41:41;103141.81;;;0.10;58.97
7264;BME280;3673;52.480;13.348;2022-12-18T09:44:20;103125.13;;;0.26;58.35
7264;BME280;3673;52.480;13.348;2022-12-18T09:46:56;103134.09;;;0.53;57.38
7264;BME280;3673;52.480;13.348;2022-12-18T09:49:28;103129.91;;;0.77;57.15
7264;BME280;3673;52.480;13.348;2022-12-18T09:52:03;103140.03;;;0.52;57.51
7264;BME280;3673;52.480;13.348;2022-12-18T09:54:36;103118.50;;;0.73;57.12
7264;BME280;3673;52.480;13.348;2022-12-18T09:57:05;103110.34;;;0.57;57.62
7264;BME280;3673;52.480;13.348;2022-12-18T09:59:37;103117.38;;;0.48;57.93
7264;BME280;3673;52.480;13.348;2022-12-18T10:02:17;103108.34;;;0.10;59.23
7264;BME280;3673;52.480;13.348;2022-12-18T10:04:55;103087.69;;;-0.02;59.89
7264;BME280;3673;52.480;13.348;2022-12-18T10:07:31;103090.28;;;0.20;59.66
7264;BME280;3673;52.480;13.348;2022-12-18T10:10:07;103085.00;;;-0.04;59.68
7264;BME280;3673;52.480;13.348;2022-12-18T10:12:46;103077.63;;;-0.21;60.83
7264;BME280;3673;52.480;13.348;2022-12-18T10:15:23;103074.50;;;-0.48;61.17
7264;BME280;3673;52.480;13.348;2022-12-18T10:17:57;103082.31;;;-0.37;61.78
7264;BME280;3673;52.480;13.348;2022-12-18T10:20:33;103087.44;;;-0.05;61.38
7264;BME280;3673;52.480;13.348;2022-12-18T10:23:10;103094.78;;;-0.41;61.54
7264;BME280;3673;52.480;13.348;2022-12-18T10:25:51;103095.38;;;-0.24;62.32
7264;BME280;3673;52.480;13.348;2022-12-18T10:28:20;103081.91;;;-0.10;61.91
7264;BME280;3673;52.480;13.348;2022-12-18T10:30:48;103087.25;;;-0.18;61.54
7264;BME280;3673;52.480;13.348;2022-12-18T10:33:18;103081.09;;;0.02;60.89
7264;BME280;3673;52.480;13.348;2022-12-18T10:35:45;103078.06;;;-0.05;60.93
7264;BME280;3673;52.480;13.348;2022-12-18T10:38:26;103077.91;;;0.37;60.54
7264;BME280;3673;52.480;13.348;2022-12-18T10:40:56;103064.44;;;0.51;60.19
7264;BME280;3673;52.480;13.348;2022-12-18T10:43:26;103066.09;;;0.73;58.73
7264;BME280;3673;52.480;13.348;2022-12-18T10:46:07;103064.41;;;0.85;59.56
7264;BME280;3673;52.480;13.348;2022-12-18T10:48:49;103064.22;;;0.60;59.71
7264;BME280;3673;52.480;13.348;2022-12-18T10:51:22;103046.94;;;0.81;59.59
7264;BME280;3673;52.480;13.348;2022-12-18T10:53:56;103052.34;;;0.95;59.11
7264;BME280;3673;52.480;13.348;2022-12-18T10:56:26;103035.19;;;0.73;59.40
7264;BME280;3673;52.480;13.348;2022-12-18T10:58:59;103033.84;;;0.89;59.61
7264;BME280;3673;52.480;13.348;2022-12-18T11:01:27;103041.50;;;0.99;59.73
7264;BME280;3673;52.480;13.348;2022-12-18T11:04:07;103033.19;;;1.15;59.41
7264;BME280;3673;52.480;13.348;2022-12-18T11:07:02;103038.22;;;1.14;59.08
7264;BME280;3673;52.480;13.348;2022-12-18T11:09:32;103038.69;;;1.31;59.00
7264;BME280;3673;52.480;13.348;2022-12-18T11:12:02;103031.63;;;1.29;58.90
7264;BME280;3673;52.480;13.348;2022-12-18T11:14:32;103037.00;;;1.20;59.31
7264;BME280;3673;52.480;13.348;2022-12-18T11:17:00;103030.84;;;1.41;58.48
7264;BME280;3673;52.480;13.348;2022-12-18T11:19:34;103040.47;;;1.21;59.34
7264;BME280;3673;52.480;13.348;2022-12-18T11:22:19;103032.88;;;1.22;59.66
7264;BME280;3673;52.480;13.348;2022-12-18T11:24:55;103033.69;;;0.65;60.83
7264;BME280;3673;52.480;13.348;2022-12-18T11:27:22;103034.94;;;0.81;60.59
7264;BME280;3673;52.480;13.348;2022-12-18T11:29:50;103048.91;;;0.62;61.35
7264;BME280;3673;52.480;13.348;2022-12-18T11:32:41;103046.34;;;2.50;67.12
7264;BME280;3673;52.480;13.348;2022-12-18T11:35:16;103028.44;;;4.66;62.09
7264;BME280;3673;52.480;13.348;2022-12-18T11:37:49;103028.72;;;3.88;60.82
7264;BME280;3673;52.480;13.348;2022-12-18T11:40:27;103024.69;;;4.91;61.73
7264;BME280;3673;52.480;13.348;2022-12-18T11:42:59;103027.34;;;7.30;57.49
7264;BME280;3673;52.480;13.348;2022-12-18T11:45:34;103031.13;;;7.54;56.29
7264;BME280;3673;52.480;13.348;2022-12-18T11:48:05;103041.38;;;7.51;50.49
7264;BME280;3673;52.480;13.348;2022-12-18T11:50:46;103056.47;;;3.49;50.79
7264;BME280;3673;52.480;13.348;2022-12-18T11:53:15;103052.44;;;2.26;54.62
7264;BME280;3673;52.480;13.348;2022-12-18T11:55:54;103059.44;;;1.56;56.70
7264;BME280;3673;52.480;13.348;2022-12-18T11:58:37;103060.09;;;1.30;58.34
7264;BME280;3673;52.480;13.348;2022-12-18T12:01:18;103060.56;;;1.48;58.38
7264;BME280;3673;52.480;13.348;2022-12-18T12:04:12;103056.63;;;1.53;58.44
7264;BME280;3673;52.480;13.348;2022-12-18T12:06:49;103073.91;;;1.66;58.20
7264;BME280;3673;52.480;13.348;2022-12-18T12:09:26;103068.31;;;1.36;58.17
7264;BME280;3673;52.480;13.348;2022-12-18T12:12:12;103073.91;;;1.42;58.76
7264;BME280;3673;52.480;13.348;2022-12-18T12:14:51;103069.06;;;1.12;60.17
7264;BME280;3673;52.480;13.348;2022-12-18T12:17:30;103076.25;;;1.39;59.18
7264;BME280;3673;52.480;13.348;2022-12-18T12:20:07;103071.66;;;1.35;59.58
7264;BME280;3673;52.480;13.348;2022-12-18T12:22:45;103062.00;;;1.21;59.71
7264;BME280;3673;52.480;13.348;2022-12-18T12:25:28;103056.66;;;1.30;59.36
7264;BME280;3673;52.480;13.348;2022-12-18T12:28:13;103069.84;;;1.58;58.52
7264;BME280;3673;52.480;13.348;2022-12-18T12:30:54;103074.66;;;1.65;58.47
7264;BME280;3673;52.480;13.348;2022-12-18T12:44:20;103080.50;;;1.27;59.48
7264;BME280;3673;52.480;13.348;2022-12-18T12:46:49;103087.25;;;1.60;59.16
7264;BME280;3673;52.480;13.348;2022-12-18T12:49:20;103088.31;;;1.87;58.48
7264;BME280;3673;52.480;13.348;2022-12-18T12:55:34;103050.25;;;1.36;59.74
7264;BME280;3673;52.480;13.348;2022-12-18T12:58:55;103046.75;;;1.59;58.77
7264;BME280;3673;52.480;13.348;2022-12-18T13:05:29;103025.22;;;1.59;59.42
7264;BME280;3673;52.480;13.348;2022-12-18T13:08:02;103032.09;;;1.23;59.57
7264;BME280;3673;52.480;13.348;2022-12-18T13:10:35;103028.28;;;1.30;60.13
7264;BME280;3673;52.480;13.348;2022-12-18T13:16:29;103045.75;;;1.34;59.39
7264;BME280;3673;52.480;13.348;2022-12-18T13:18:57;103044.06;;;1.34;59.33
7264;BME280;3673;52.480;13.348;2022-12-18T13:21:28;103038.47;;;1.63;58.63
7264;BME280;3673;52.480;13.348;2022-12-18T13:23:56;103030.59;;;1.62;58.21
7264;BME280;3673;52.480;13.348;2022-12-18T13:26:40;103040.44;;;1.67;58.34
7264;BME280;3673;52.480;13.348;2022-12-18T13:29:07;103037.78;;;1.66;58.56
7264;BME280;3673;52.480;13.348;2022-12-18T13:32:19;103035.84;;;1.86;58.44
7264;BME280;3673;52.480;13.348;2022-12-18T13:38:35;103027.06;;;1.84;58.14
7264;BME280;3673;52.480;13.348;2022-12-18T13:41:28;103027.19;;;1.74;58.34
7264;BME280;3673;52.480;13.348;2022-12-18T13:44:10;103027.41;;;1.77;58.52
7264;BME280;3673;52.480;13.348;2022-12-18T13:46:43;103028.22;;;1.65;58.37
7264;BME280;3673;52.480;13.348;2022-12-18T13:49:23;103009.41;;;1.54;59.01
7264;BME280;3673;52.480;13.348;2022-12-18T13:51:53;103013.16;;;0.99;59.87